Cass Lake, Minnesota
Current Conditions -  °F | °C
As of 1:15 AM on Thursday 18 Dec 2014 (Local Time) from KY49 Reporting Station
Clear Clear  
Wind Chill:   Ceiling: Unl
Heat Index:   Visibility: 10mi
Dew Point: -1°   Wind: 0mph
Humidity: 87%   Direction: NA
Pressure: 30.27"   Gusts: NA
Location:  47.38°N, 94.6°W
Report Text: KY49 180715Z AUTO 00000KT 10SM CLR M16/M18 A3027 RMK AO2 T11641181
Loading
Personal Weather Stations






























Interactive Weather Map New forecast layout! Learn more

10-Day Weather Forecast

Advertisements
Track Severe Weather on mobile